Terminal Aerodrome Forecast
Issued by NWS

Home | Current Version | Previous Version | Text Only | Print | Product List | Glossary On
Versions: 1 2 3 4 5 6 7 8 9 10 11 12 13 14 15 16 17 18
000
FTUS43 KEAX 271400 AAA
TAFMKC
TAF AMD
KMKC 271421Z 2714/2812 36006KT P6SM OVC018
     FM271600 VRB03KT P6SM FEW025 BKN080
     FM272100 14008KT P6SM SCT150=

USA.gov is the U.S. government's official web portal to all federal, state and local government web resources and services.